Time;durP1;ratioP1;P1;durP2;ratioP2;P2;SDS_P1;SDS_P2;PMS_P1;PMS_P2;Temp;Humidity;BMP_temperature;BMP_pressure;BME280_temperature;BME280_humidity;BME280_pressure;Samples;Min_cycle;Max_cycle;Signal;HPM_P1;HPM_P2
2022/10/13 17:26:01;;;;;;;;;16.50;16.50;;;;;15.77;86.67;101236.66;1435039;25;46258;-73
2022/10/13 17:31:49;;;;;;;;;16.25;14.75;;;;;15.91;86.04;101243.09;5084316;27;45969;-73
2022/10/13 17:34:14;;;;;;;;;13.00;13.00;;;;;15.96;85.96;101243.66;5090230;27;46442;-73
2022/10/13 17:36:40;;;;;;;;;17.50;15.50;;;;;15.99;85.11;101241.63;5072809;27;45356;-73
2022/10/13 17:39:07;;;;;;;;;16.00;15.75;;;;;15.95;85.30;101241.94;5090928;27;45470;-74
2022/10/13 17:41:33;;;;;;;;;16.50;16.50;;;;;15.95;84.82;101228.41;5090835;27;45560;-74
2022/10/13 17:43:58;;;;;;;;;14.50;14.50;;;;;15.95;84.58;101228.41;5091463;27;46192;-74
2022/10/13 17:46:29;;;;;;;;;16.50;15.75;;;;;15.98;84.43;101230.94;5095061;27;45394;-74
2022/10/13 17:48:56;;;;;;;;;13.00;13.00;;;;;16.08;84.19;101237.50;5090940;27;45301;-74
2022/10/13 17:51:22;;;;;;;;;20.25;18.50;;;;;16.09;84.41;101245.53;5091422;27;45352;-74
2022/10/13 17:53:49;;;;;;;;;18.75;17.00;;;;;16.08;84.36;101237.50;5091156;27;45679;-73
2022/10/13 17:56:20;;;;;;;;;15.50;15.50;;;;;16.13;84.49;101243.53;5091395;27;45323;-74
2022/10/13 17:58:46;;;;;;;;;16.75;16.75;;;;;16.15;84.00;101242.47;5091457;27;45350;-75
2022/10/13 18:01:23;;;;;;;;;17.25;15.25;;;;;16.19;83.68;101243.13;5090847;27;45333;-74
2022/10/13 18:03:51;;;;;;;;;18.75;18.75;;;;;16.16;83.65;101244.19;5089222;27;47034;-74
2022/10/13 18:06:18;;;;;;;;;21.00;17.75;;;;;16.21;83.64;101247.50;5091026;27;45350;-75
2022/10/13 18:08:43;;;;;;;;;16.25;16.25;;;;;16.08;83.58;101216.72;5077360;27;45328;-74
2022/10/13 18:11:12;;;;;;;;;17.00;17.00;;;;;16.23;83.71;101240.16;5091884;27;45291;-76
2022/10/13 18:13:38;;;;;;;;;17.00;15.00;;;;;16.17;83.05;101227.00;5090916;27;46410;-74
2022/10/13 18:16:09;;;;;;;;;21.00;18.50;;;;;16.19;83.21;101226.91;5090607;27;45464;-76
2022/10/13 18:18:36;;;;;;;;;16.25;16.00;;;;;16.24;82.97;101246.44;5091153;27;45541;-76
2022/10/13 18:21:04;;;;;;;;;17.50;17.50;;;;;16.29;83.14;101247.03;5072072;27;47607;-75
2022/10/13 18:23:35;;;;;;;;;18.50;17.50;;;;;16.30;82.95;101243.34;5080085;27;46841;-74
2022/10/13 18:26:02;;;;;;;;;20.00;17.00;;;;;16.34;82.83;101244.88;5076686;27;45486;-75
2022/10/13 18:28:30;;;;;;;;;14.50;14.50;;;;;16.29;82.94;101238.91;5077068;28;45500;-73
2022/10/13 18:31:02;;;;;;;;;17.75;17.50;;;;;16.36;82.83;101245.66;5076187;28;45457;-73
2022/10/13 18:33:34;;;;;;;;;19.50;19.50;;;;;16.32;82.68;101229.75;5076594;28;46130;-77
2022/10/13 18:35:59;;;;;;;;;15.75;15.75;;;;;16.27;82.67;101232.72;5073187;27;45536;-77
2022/10/13 18:38:25;;;;;;;;;17.00;17.00;;;;;16.23;82.48;101228.47;5077307;27;45520;-76
2022/10/13 18:40:51;;;;;;;;;19.75;19.25;;;;;16.33;82.61;101240.47;5076400;28;45467;-78
2022/10/13 18:43:17;;;;;;;;;19.50;17.50;;;;;16.31;82.78;101230.69;5082149;27;45438;-74
2022/10/13 18:45:42;;;;;;;;;18.50;18.00;;;;;16.26;82.61;101228.25;5058193;28;45433;-72
2022/10/13 18:48:08;;;;;;;;;15.50;15.50;;;;;16.33;82.27;101236.91;5076253;28;45531;-72
2022/10/13 18:50:37;;;;;;;;;23.25;20.25;;;;;16.19;82.81;101210.66;5081400;27;45424;-69
2022/10/13 18:53:03;;;;;;;;;25.25;23.75;;;;;16.31;82.69;101228.00;5085750;27;45583;-71
2022/10/13 18:55:29;;;;;;;;;21.50;21.50;;;;;16.30;82.67;101234.38;5084813;27;45272;-71
2022/10/13 18:57:54;;;;;;;;;20.00;19.75;;;;;16.28;82.85;101238.03;5081509;27;45308;-77
2022/10/13 19:00:20;;;;;;;;;21.50;21.50;;;;;16.26;83.31;101239.09;5057901;28;45290;-72
2022/10/13 19:02:46;;;;;;;;;21.50;20.25;;;;;16.15;83.15;101223.53;5076417;28;45963;-72
2022/10/13 19:05:13;;;;;;;;;21.25;16.50;;;;;16.08;83.22;101218.56;5075770;28;45363;-73
2022/10/13 19:07:38;;;;;;;;;20.25;18.75;;;;;16.11;83.39;101221.09;5077438;27;45382;-71
2022/10/13 19:10:04;;;;;;;;;19.75;19.50;;;;;16.18;83.55;101230.56;5068764;27;45523;-73
2022/10/13 19:16:01;;;;;;;;;21.75;20.00;;;;;16.21;83.42;101236.69;5082047;27;45398;-72
2022/10/13 19:18:26;;;;;;;;;20.50;19.75;;;;;16.23;83.24;101240.16;5058188;28;45502;-73
2022/10/13 19:20:51;;;;;;;;;19.75;17.75;;;;;16.05;83.39;101218.78;5071069;28;45622;-72
2022/10/13 19:23:17;;;;;;;;;19.25;17.50;;;;;16.08;83.37;101207.75;5075084;28;45526;-74
2022/10/13 19:25:43;;;;;;;;;20.50;20.50;;;;;16.19;83.01;101224.19;5075604;28;45321;-72
2022/10/13 19:28:09;;;;;;;;;20.50;18.50;;;;;16.17;83.24;101228.81;5073916;28;45379;-72
2022/10/13 19:30:34;;;;;;;;;21.00;19.25;;;;;16.12;83.34;101214.72;5069980;28;45517;-72
2022/10/13 19:33:00;;;;;;;;;20.50;20.00;;;;;16.24;82.99;101224.81;5056612;28;47089;-73
2022/10/13 19:35:25;;;;;;;;;21.75;18.25;;;;;16.05;83.16;101194.44;5074970;28;45368;-73
2022/10/13 19:37:54;;;;;;;;;20.25;16.75;;;;;16.24;83.16;101230.22;5071297;27;45520;-74
2022/10/13 19:40:19;;;;;;;;;23.50;19.00;;;;;16.10;83.15;101206.69;5075577;27;45609;-73
2022/10/13 19:42:46;;;;;;;;;18.75;18.25;;;;;16.16;83.15;101216.28;5074300;27;46310;-73
2022/10/13 19:45:12;;;;;;;;;18.00;18.00;;;;;16.24;83.12;101231.09;5075457;28;45184;-74
2022/10/13 19:47:38;;;;;;;;;22.75;19.50;;;;;16.22;83.06;101214.06;5074727;28;45311;-73
2022/10/13 19:50:04;;;;;;;;;22.25;21.00;;;;;16.30;83.32;101228.94;5075179;28;45335;-72
2022/10/13 19:52:29;;;;;;;;;29.00;24.00;;;;;16.19;83.30;101218.78;5058739;28;48227;-73
2022/10/13 19:54:55;;;;;;;;;23.75;21.50;;;;;16.31;83.14;101228.00;5073875;28;45405;-74
2022/10/13 19:57:21;;;;;;;;;20.75;20.75;;;;;16.23;83.34;101217.66;5073882;28;45479;-74
2022/10/13 19:59:46;;;;;;;;;28.00;21.50;;;;;16.17;83.43;101202.63;5072671;27;45591;-73
2022/10/13 20:02:11;;;;;;;;;22.00;21.50;;;;;16.32;83.30;101217.06;5078235;27;46016;-71
2022/10/13 20:04:37;;;;;;;;;19.00;19.00;;;;;16.31;83.31;101214.47;5077881;27;45621;-73
2022/10/13 20:07:02;;;;;;;;;22.00;22.00;;;;;16.38;83.25;101227.50;5074054;28;45516;-74
2022/10/13 20:09:28;;;;;;;;;22.50;20.50;;;;;16.36;83.42;101226.72;5073606;28;46615;-74
2022/10/13 20:11:54;;;;;;;;;21.00;18.00;;;;;16.38;83.54;101223.94;5072000;28;46096;-74
2022/10/13 20:14:20;;;;;;;;;20.00;17.00;;;;;16.27;83.83;101202.94;5052581;28;45399;-74
2022/10/13 20:16:46;;;;;;;;;26.00;19.75;;;;;16.12;83.84;101175.03;5072919;27;45489;-74
2022/10/13 20:19:15;;;;;;;;;20.25;19.75;;;;;16.28;84.08;101201.97;5074658;28;46607;-74
2022/10/13 20:21:41;;;;;;;;;23.00;20.00;;;;;16.37;84.23;101211.38;5075051;28;46125;-73
2022/10/13 20:24:06;;;;;;;;;18.75;18.75;;;;;16.36;84.45;101215.91;5074483;28;45588;-76
2022/10/13 20:26:32;;;;;;;;;18.25;17.25;;;;;16.25;84.73;101200.34;5075138;28;45564;-73
2022/10/13 20:28:57;;;;;;;;;20.25;18.50;;;;;16.24;84.96;101193.22;5073508;28;47155;-73
2022/10/13 20:31:23;;;;;;;;;22.00;19.50;;;;;16.34;85.13;101214.25;5075179;28;45394;-73
2022/10/13 20:33:54;;;;;;;;;20.75;15.00;;;;;16.30;85.09;101202.75;5075056;28;45492;-73
2022/10/13 20:36:20;;;;;;;;;19.50;19.25;;;;;16.23;85.14;101198.72;5075189;28;45379;-74
2022/10/13 20:38:47;;;;;;;;;25.00;21.50;;;;;16.13;85.37;101175.91;5074569;28;45409;-74
2022/10/13 20:41:17;;;;;;;;;21.75;19.75;;;;;16.33;85.25;101213.41;5074682;28;45441;-72
2022/10/13 20:43:43;;;;;;;;;19.50;19.50;;;;;16.30;85.93;101215.44;5074892;28;45405;-72
2022/10/13 20:46:09;;;;;;;;;23.75;19.25;;;;;16.29;85.35;101203.72;5074594;28;45362;-73
2022/10/13 20:48:36;;;;;;;;;18.50;15.75;;;;;16.27;85.42;101202.94;5074731;28;45389;-72
2022/10/13 20:51:07;;;;;;;;;18.50;18.50;;;;;16.21;85.31;101182.56;5074824;28;46204;-74
2022/10/13 20:53:35;;;;;;;;;19.00;17.50;;;;;16.31;85.61;101198.22;5074366;28;45508;-73
2022/10/13 20:56:03;;;;;;;;;20.25;19.00;;;;;16.29;85.31;101192.91;5074837;28;45474;-73
2022/10/13 20:58:31;;;;;;;;;24.75;23.00;;;;;16.27;85.56;101186.72;5074392;28;45578;-73
2022/10/13 21:00:56;;;;;;;;;16.75;16.75;;;;;16.26;85.42;101196.66;5074763;28;46760;-73
2022/10/13 21:03:23;;;;;;;;;18.50;16.75;;;;;16.29;85.30;101192.91;5074425;28;45365;-73
2022/10/13 21:05:51;;;;;;;;;20.75;20.25;;;;;16.28;85.36;101200.16;5074720;28;45536;-73
2022/10/13 21:08:17;;;;;;;;;21.25;19.00;;;;;16.30;85.70;101200.06;5074137;28;45408;-71
2022/10/13 21:10:43;;;;;;;;;20.50;20.00;;;;;16.10;85.39;101174.25;5074354;28;45386;-73
2022/10/13 21:13:09;;;;;;;;;17.25;16.50;;;;;16.18;85.86;101184.59;5074123;28;45633;-73
2022/10/13 21:15:36;;;;;;;;;16.50;16.50;;;;;16.28;85.78;101201.97;5074714;28;45331;-73
2022/10/13 21:18:02;;;;;;;;;23.25;20.25;;;;;16.25;85.51;101188.63;5056221;28;45724;-71
2022/10/13 21:20:27;;;;;;;;;19.75;17.50;;;;;16.27;85.69;101206.53;5074743;28;46213;-73
2022/10/13 21:22:52;;;;;;;;;20.75;16.75;;;;;16.27;85.65;101192.13;5074233;28;45328;-73
2022/10/13 21:25:18;;;;;;;;;16.50;16.50;;;;;16.25;85.72;101188.63;5074527;28;45305;-73
2022/10/13 21:27:43;;;;;;;;;16.00;16.00;;;;;16.27;85.80;101193.00;5073512;28;45410;-72
2022/10/13 21:30:09;;;;;;;;;18.75;18.75;;;;;16.29;85.59;101203.72;5055676;28;47473;-72
2022/10/13 21:32:34;;;;;;;;;20.75;18.00;;;;;16.26;86.01;101193.97;5073706;28;45507;-73
2022/10/13 21:34:59;;;;;;;;;18.25;17.25;;;;;16.27;86.00;101197.53;5074114;28;45261;-73
2022/10/13 21:37:25;;;;;;;;;19.00;19.00;;;;;16.17;86.18;101189.13;5073591;28;45520;-73
2022/10/13 21:39:52;;;;;;;;;18.75;18.75;;;;;16.27;85.80;101192.13;5073750;28;46155;-72
2022/10/13 21:42:18;;;;;;;;;18.00;16.00;;;;;16.27;85.80;101192.13;5074118;28;45501;-73
2022/10/13 21:44:43;;;;;;;;;18.00;18.00;;;;;16.26;85.87;101180.44;5055719;28;45454;-71
2022/10/13 21:47:08;;;;;;;;;20.75;18.50;;;;;16.32;85.84;101181.03;5073757;28;46576;-73
2022/10/13 21:49:34;;;;;;;;;21.25;18.50;;;;;16.34;85.93;101184.50;5073766;28;45481;-72
2022/10/13 21:51:59;;;;;;;;;19.00;17.00;;;;;16.31;85.61;101174.75;5074017;28;45293;-71
2022/10/13 21:54:24;;;;;;;;;20.25;17.50;;;;;16.33;85.80;101166.53;5073537;28;45854;-72
2022/10/13 21:56:50;;;;;;;;;18.50;18.00;;;;;16.27;85.55;101165.94;5073942;28;45394;-71
2022/10/13 21:59:15;;;;;;;;;20.50;17.75;;;;;16.32;86.28;101171.09;5076915;28;46621;-72
2022/10/13 22:01:42;;;;;;;;;17.50;17.50;;;;;16.32;86.07;101167.50;5077537;28;45204;-73
2022/10/13 22:04:10;;;;;;;;;20.00;20.00;;;;;16.19;85.95;101145.75;5077281;28;45414;-70
2022/10/13 22:06:35;;;;;;;;;17.00;17.00;;;;;16.29;85.66;101165.84;5077111;28;45357;-72
2022/10/13 22:09:04;;;;;;;;;17.50;16.50;;;;;16.33;85.80;101169.25;5076727;28;46379;-72
2022/10/13 22:11:31;;;;;;;;;16.00;16.00;;;;;16.35;85.43;101161.88;5075683;28;45342;-72
2022/10/13 22:13:57;;;;;;;;;18.50;16.50;;;;;16.26;85.48;101145.25;5077192;28;45343;-72
2022/10/13 22:16:34;;;;;;;;;24.25;19.00;;;;;16.32;85.65;101153.97;5076962;28;45514;-71
2022/10/13 22:19:00;;;;;;;;;17.25;17.00;;;;;16.34;85.67;101161.00;5077098;28;45391;-73
2022/10/13 22:21:29;;;;;;;;;16.00;16.00;;;;;16.26;85.65;101145.25;5077066;28;45283;-71
2022/10/13 22:24:00;;;;;;;;;17.00;14.25;;;;;16.31;85.81;101155.81;5076688;28;45359;-72
2022/10/13 22:26:27;;;;;;;;;19.25;17.75;;;;;16.26;85.66;101137.13;5076545;28;45378;-72
2022/10/13 22:28:52;;;;;;;;;16.50;14.75;;;;;16.28;86.33;101148.75;5076745;28;46149;-71
2022/10/13 22:31:18;;;;;;;;;15.50;15.50;;;;;16.27;86.43;101140.72;5076750;28;47082;-72
2022/10/13 22:33:43;;;;;;;;;16.75;16.00;;;;;16.25;86.62;101146.22;5077410;28;45404;-72
2022/10/13 22:36:21;;;;;;;;;15.00;15.00;;;;;16.19;87.17;101148.44;5058474;28;46237;-71
2022/10/13 22:38:49;;;;;;;;;13.50;13.00;;;;;16.21;87.28;101143.81;5076952;28;46021;-72
2022/10/13 22:41:16;;;;;;;;;17.25;12.00;;;;;16.25;87.20;101148.06;5076352;28;45569;-72
2022/10/13 22:43:43;;;;;;;;;11.75;11.75;;;;;16.24;87.16;101136.41;5076476;28;45599;-73
2022/10/13 22:46:09;;;;;;;;;16.25;13.25;;;;;16.27;87.55;101138.00;5076360;28;45484;-71
2022/10/13 22:48:35;;;;;;;;;15.75;15.25;;;;;16.22;87.56;101129.34;5076427;28;45362;-72
2022/10/13 22:51:04;;;;;;;;;12.50;12.00;;;;;16.30;87.57;101132.41;5076279;28;45299;-72
2022/10/13 22:53:31;;;;;;;;;13.50;13.50;;;;;16.30;87.45;101131.56;5076683;28;45368;-71
2022/10/13 22:55:56;;;;;;;;;9.50;9.50;;;;;16.19;87.07;101110.56;5076202;28;45404;-71
2022/10/13 22:58:22;;;;;;;;;16.25;13.00;;;;;16.26;87.17;101115.50;5076507;28;46346;-72
